GSP weather

Greenville Spartanburg International Airport
Greenville, South Carolina, United States

Public forecast

Using degrees Fahrenheit for public forecast. Weather courtesy of forecast.io.

METAR (pilot weather report)

Retrieved 2019/03/27 01:53 UTC (10 minutes ago):

KGSP 270153Z 02006KT 10SM BKN060 10/04 A3025 RMK AO2 SLP243 T01000044

TAF (pilot weather forecast)

Forecast is more than 12 hours old.

Retrieved 2019/03/26 00:28 UTC (1 day ago):

TAF KGSP 262326Z 2700/2724 04008KT P6SM BKN040 FM270200 04007KT P6SM SCT040 FM270500 05006KT P6SM SCT250 FM271500 05011G18KT P6SM FEW250 FM272100 07006KT P6SM SKC